Time;durP1;ratioP1;P1;durP2;ratioP2;P2;SDS_P1;SDS_P2;PMS_P1;PMS_P2;Temp;Humidity;BMP_temperature;BMP_pressure;BME280_temperature;BME280_humidity;BME280_pressure;Samples;Min_cycle;Max_cycle;Signal;HPM_P1;HPM_P2
2021/12/09 00:01:38;;;;;;;40.03;21.70;;;4.50;99.90;;;;;;5058384;28;20208;-77
2021/12/09 00:04:29;;;;;;;30.42;19.70;;;4.50;99.90;;;;;;5072903;28;20201;-76
2021/12/09 00:07:15;;;;;;;33.88;20.60;;;4.50;99.90;;;;;;5075828;28;20692;-78
2021/12/09 00:10:05;;;;;;;35.15;20.30;;;4.50;99.90;;;;;;5061005;28;20314;-78
2021/12/09 00:12:51;;;;;;;35.03;22.27;;;4.50;99.90;;;;;;5080457;28;20203;-77
2021/12/09 00:15:37;;;;;;;34.13;20.63;;;4.60;99.90;;;;;;5062165;28;20212;-74
2021/12/09 00:18:24;;;;;;;38.50;21.50;;;4.60;99.90;;;;;;5058286;28;20228;-78
2021/12/09 00:21:10;;;;;;;33.03;19.85;;;4.70;99.90;;;;;;5058105;28;20208;-77
2021/12/09 00:23:56;;;;;;;30.73;21.10;;;4.70;99.90;;;;;;5064177;28;20201;-77
2021/12/09 00:26:44;;;;;;;31.92;20.02;;;4.70;99.90;;;;;;5065351;28;20197;-77
2021/12/09 00:29:29;;;;;;;37.53;19.38;;;4.70;99.90;;;;;;5060686;28;20283;-77
2021/12/09 00:32:15;;;;;;;34.75;22.67;;;4.80;99.90;;;;;;5065422;28;20226;-76
2021/12/09 00:35:03;;;;;;;42.28;27.10;;;4.80;99.90;;;;;;5061774;28;20383;-75
2021/12/09 00:37:56;;;;;;;44.00;25.23;;;4.80;99.90;;;;;;5064251;28;20656;-77
2021/12/09 00:40:42;;;;;;;46.33;30.02;;;4.80;99.90;;;;;;5056467;28;20205;-77
2021/12/09 00:43:28;;;;;;;49.92;30.80;;;4.80;99.90;;;;;;5066903;28;20228;-77
2021/12/09 00:46:14;;;;;;;46.50;30.52;;;4.80;99.90;;;;;;5062472;28;20200;-77
2021/12/09 00:48:59;;;;;;;50.97;29.35;;;4.80;99.90;;;;;;5055542;28;20255;-76
2021/12/09 00:51:46;;;;;;;46.67;27.67;;;4.80;99.90;;;;;;5061766;28;20216;-77
2021/12/09 00:54:32;;;;;;;45.47;27.77;;;4.80;99.90;;;;;;5075798;28;20248;-77
2021/12/09 00:57:19;;;;;;;46.58;29.90;;;4.90;99.90;;;;;;5066721;28;20200;-77
2021/12/09 01:00:07;;;;;;;46.38;25.98;;;4.90;99.90;;;;;;5062313;28;20241;-77
2021/12/09 01:02:52;;;;;;;48.15;28.00;;;4.90;99.90;;;;;;5068272;28;20203;-77
2021/12/09 01:05:38;;;;;;;43.42;28.40;;;4.90;99.90;;;;;;5071378;28;20204;-77
2021/12/09 01:08:25;;;;;;;48.10;29.00;;;4.90;99.90;;;;;;5073402;28;20224;-75
2021/12/09 01:11:12;;;;;;;46.38;29.73;;;4.80;99.90;;;;;;5061665;28;20212;-77
2021/12/09 01:13:58;;;;;;;47.15;30.83;;;4.80;99.90;;;;;;5067575;28;20243;-77
2021/12/09 01:16:43;;;;;;;56.97;33.58;;;4.80;99.90;;;;;;5062541;28;20558;-77
2021/12/09 01:19:29;;;;;;;63.72;31.60;;;4.80;99.90;;;;;;5063850;28;20224;-77
2021/12/09 01:22:14;;;;;;;47.92;30.63;;;4.70;99.90;;;;;;5071860;28;20216;-77
2021/12/09 01:25:02;;;;;;;57.40;32.53;;;4.60;99.90;;;;;;5060224;28;20287;-77
2021/12/09 01:27:49;;;;;;;49.90;29.88;;;4.50;99.90;;;;;;5070919;28;20196;-76
2021/12/09 01:30:35;;;;;;;46.30;30.90;;;4.50;99.90;;;;;;5063973;28;20200;-77
2021/12/09 01:33:23;;;;;;;53.08;30.83;;;4.40;99.90;;;;;;5066364;28;20212;-76
2021/12/09 01:36:09;;;;;;;43.65;26.95;;;4.40;99.90;;;;;;5062647;28;20224;-76
2021/12/09 01:38:55;;;;;;;47.40;28.35;;;4.30;99.90;;;;;;5064805;28;20218;-77
2021/12/09 01:41:42;;;;;;;39.75;27.15;;;4.30;99.90;;;;;;5068070;28;20212;-77
2021/12/09 01:44:28;;;;;;;35.55;24.30;;;4.20;99.90;;;;;;5061945;28;20254;-77
2021/12/09 01:47:14;;;;;;;40.38;26.60;;;4.10;99.90;;;;;;5065434;28;20200;-77
2021/12/09 01:49:59;;;;;;;35.15;22.05;;;4.20;99.90;;;;;;5056891;22;20705;-74
2021/12/09 01:52:45;;;;;;;45.53;25.38;;;4.30;99.90;;;;;;5033095;28;20279;-74
2021/12/09 01:55:31;;;;;;;39.67;25.42;;;4.30;99.90;;;;;;5036207;28;20609;-74
2021/12/09 01:58:19;;;;;;;37.35;24.67;;;4.30;99.90;;;;;;5035333;28;20295;-74
2021/12/09 02:01:06;;;;;;;87.53;23.25;;;4.30;99.90;;;;;;5027924;28;20198;-74
2021/12/09 02:03:52;;;;;;;32.47;21.42;;;4.30;99.90;;;;;;5037152;28;20221;-74
2021/12/09 02:06:40;;;;;;;31.92;20.83;;;4.10;99.90;;;;;;5029476;28;20279;-74
2021/12/09 02:09:26;;;;;;;29.38;21.33;;;4.10;99.90;;;;;;5030773;28;20721;-73
2021/12/09 02:12:12;;;;;;;26.70;19.25;;;4.10;99.90;;;;;;5026998;28;20268;-74
2021/12/09 02:15:00;;;;;;;31.23;21.05;;;4.10;99.90;;;;;;5030060;28;20241;-74
2021/12/09 02:17:46;;;;;;;28.02;20.20;;;4.20;99.90;;;;;;5029103;28;20206;-74
2021/12/09 02:20:34;;;;;;;26.23;21.58;;;4.20;99.90;;;;;;5028940;28;20372;-74
2021/12/09 02:23:20;;;;;;;24.77;19.45;;;4.20;99.90;;;;;;5030165;28;20201;-74
2021/12/09 02:26:06;;;;;;;24.60;18.23;;;4.30;99.90;;;;;;5031724;28;20682;-74
2021/12/09 02:28:53;;;;;;;27.55;19.65;;;4.30;99.90;;;;;;5027898;28;20221;-74
2021/12/09 02:31:39;;;;;;;23.25;19.80;;;4.20;99.90;;;;;;5036479;28;20213;-74
2021/12/09 02:34:25;;;;;;;24.15;19.35;;;4.30;99.90;;;;;;5029470;28;20204;-73
2021/12/09 02:37:13;;;;;;;27.13;18.70;;;4.30;99.90;;;;;;5030702;28;20206;-74
2021/12/09 02:39:59;;;;;;;25.63;18.63;;;4.20;99.90;;;;;;5025436;28;20353;-74
2021/12/09 02:42:46;;;;;;;25.15;18.38;;;4.20;99.90;;;;;;5030550;28;20273;-74
2021/12/09 02:45:33;;;;;;;23.42;17.45;;;4.30;99.90;;;;;;5030904;28;20251;-74
2021/12/09 02:48:19;;;;;;;26.42;18.85;;;4.30;99.90;;;;;;5025692;28;20565;-74
2021/12/09 02:51:06;;;;;;;22.27;17.15;;;4.20;99.90;;;;;;5030633;28;20216;-74
2021/12/09 02:53:53;;;;;;;22.80;15.75;;;4.20;99.90;;;;;;5033520;28;20205;-74
2021/12/09 02:56:40;;;;;;;22.45;16.40;;;4.10;99.90;;;;;;5028737;28;20213;-73
2021/12/09 02:59:26;;;;;;;18.95;13.95;;;4.00;99.90;;;;;;5029726;28;20225;-73
2021/12/09 03:02:12;;;;;;;17.90;11.40;;;3.90;99.90;;;;;;5025210;28;20273;-74
2021/12/09 03:05:01;;;;;;;33.28;12.68;;;3.90;99.90;;;;;;5031461;28;20208;-74
2021/12/09 03:07:47;;;;;;;19.63;12.02;;;3.80;99.90;;;;;;5028416;28;20209;-74
2021/12/09 03:10:34;;;;;;;17.38;11.57;;;3.70;99.90;;;;;;5027570;28;20225;-74
2021/12/09 03:13:21;;;;;;;17.52;10.30;;;3.60;99.90;;;;;;5036465;28;20694;-74
2021/12/09 03:16:07;;;;;;;12.63;9.25;;;3.50;99.90;;;;;;5035283;28;20232;-74
2021/12/09 03:18:55;;;;;;;18.55;10.00;;;3.60;99.90;;;;;;5028593;28;21129;-74
2021/12/09 03:21:43;;;;;;;17.20;8.85;;;3.50;99.90;;;;;;5031703;28;20210;-74
2021/12/09 03:24:29;;;;;;;11.20;7.88;;;3.40;99.90;;;;;;5029966;28;20205;-73
2021/12/09 03:27:16;;;;;;;12.20;6.97;;;3.40;99.90;;;;;;5027022;28;20280;-74
2021/12/09 03:30:02;;;;;;;19.75;8.15;;;3.30;99.90;;;;;;5034148;28;20221;-74
2021/12/09 03:32:47;;;;;;;11.43;7.50;;;3.20;99.90;;;;;;5030660;28;20252;-74
2021/12/09 03:35:33;;;;;;;12.02;6.50;;;3.10;99.90;;;;;;5030835;28;20225;-74
2021/12/09 03:38:18;;;;;;;10.18;6.45;;;3.10;99.90;;;;;;5030036;28;20205;-74
2021/12/09 03:41:04;;;;;;;14.60;6.50;;;3.10;99.90;;;;;;5036444;28;20570;-74
2021/12/09 03:43:52;;;;;;;12.43;6.40;;;3.10;99.90;;;;;;5034625;28;20206;-74
2021/12/09 03:46:38;;;;;;;10.90;6.07;;;3.10;99.90;;;;;;5035691;28;20735;-73
2021/12/09 03:49:24;;;;;;;16.70;5.82;;;3.20;99.90;;;;;;5036769;28;20236;-74
2021/12/09 03:52:11;;;;;;;12.98;7.47;;;3.20;99.90;;;;;;5034812;28;20291;-74
2021/12/09 03:54:57;;;;;;;10.45;6.00;;;3.10;99.90;;;;;;5034491;28;20266;-74
2021/12/09 03:57:44;;;;;;;14.52;6.40;;;3.10;99.90;;;;;;5030456;28;20236;-74
2021/12/09 04:00:31;;;;;;;14.43;6.22;;;3.10;99.90;;;;;;5033172;28;20229;-74
2021/12/09 04:03:18;;;;;;;11.73;6.05;;;3.10;99.90;;;;;;5033790;28;20304;-74
2021/12/09 04:06:04;;;;;;;10.68;7.32;;;3.10;99.90;;;;;;5032491;28;20332;-74
2021/12/09 04:08:49;;;;;;;10.15;7.00;;;3.20;99.90;;;;;;5032644;28;20605;-74
2021/12/09 04:11:35;;;;;;;12.98;6.80;;;3.10;99.90;;;;;;5033284;28;20205;-73
2021/12/09 04:14:22;;;;;;;15.10;6.90;;;2.90;99.90;;;;;;5035731;28;20213;-74
2021/12/09 04:17:09;;;;;;;14.93;6.57;;;2.70;99.90;;;;;;5027191;28;20225;-74
2021/12/09 04:19:56;;;;;;;12.15;6.35;;;2.70;99.90;;;;;;5034245;28;20221;-73
2021/12/09 04:22:48;;;;;;;9.93;6.07;;;2.70;99.90;;;;;;5034696;28;20205;-74
2021/12/09 04:25:34;;;;;;;10.27;6.18;;;2.80;99.90;;;;;;5029805;28;20634;-74
2021/12/09 04:28:20;;;;;;;11.88;7.10;;;2.80;99.90;;;;;;5028499;28;20229;-74
2021/12/09 04:31:06;;;;;;;13.35;6.25;;;2.90;99.90;;;;;;5040091;28;20205;-74
2021/12/09 04:33:53;;;;;;;14.27;6.85;;;2.90;99.90;;;;;;5040461;28;20594;-74
2021/12/09 04:36:39;;;;;;;13.75;6.68;;;3.00;99.90;;;;;;5037436;28;20229;-73
2021/12/09 04:39:24;;;;;;;13.55;6.85;;;3.00;99.90;;;;;;5044099;28;20232;-74
2021/12/09 04:42:10;;;;;;;15.73;7.38;;;3.00;99.90;;;;;;5036628;28;20197;-74
2021/12/09 04:44:56;;;;;;;9.63;7.00;;;3.10;99.90;;;;;;5028755;28;20280;-73
2021/12/09 04:47:42;;;;;;;15.95;6.25;;;3.20;99.90;;;;;;5030708;28;21968;-74
2021/12/09 04:50:29;;;;;;;15.38;7.10;;;3.20;99.90;;;;;;5031872;28;20240;-74
2021/12/09 04:53:15;;;;;;;20.50;6.25;;;3.30;99.90;;;;;;5030489;28;20545;-74
2021/12/09 04:56:00;;;;;;;15.23;6.30;;;3.30;99.90;;;;;;5033529;28;20316;-74
2021/12/09 04:58:46;;;;;;;14.10;6.50;;;3.20;99.90;;;;;;5031659;28;20256;-74
2021/12/09 05:01:32;;;;;;;17.02;6.85;;;3.20;99.90;;;;;;5032359;28;20276;-74
2021/12/09 05:04:18;;;;;;;8.40;6.32;;;3.20;99.90;;;;;;5030052;28;20213;-74
2021/12/09 05:07:06;;;;;;;13.68;6.75;;;3.30;99.90;;;;;;5034855;28;20231;-74
2021/12/09 05:09:52;;;;;;;11.80;7.15;;;3.30;99.90;;;;;;5031369;28;20229;-74
2021/12/09 05:12:38;;;;;;;13.77;7.63;;;3.40;99.90;;;;;;5041336;28;20205;-74
2021/12/09 05:15:24;;;;;;;10.85;6.85;;;3.40;99.90;;;;;;5030853;28;20210;-74
2021/12/09 05:18:10;;;;;;;11.40;7.13;;;3.40;99.90;;;;;;5030293;28;20624;-74
2021/12/09 05:20:56;;;;;;;13.60;6.20;;;3.30;99.90;;;;;;5031537;28;20210;-74
2021/12/09 05:23:44;;;;;;;18.33;7.60;;;3.20;99.90;;;;;;5030428;28;20257;-74
2021/12/09 05:26:34;;;;;;;12.40;7.95;;;3.30;99.90;;;;;;5032032;28;20233;-74
2021/12/09 05:29:22;;;;;;;11.05;6.53;;;3.30;99.90;;;;;;5031195;28;20255;-74
2021/12/09 05:32:10;;;;;;;12.98;6.68;;;3.30;99.90;;;;;;5031225;28;20211;-74
2021/12/09 05:34:56;;;;;;;18.17;8.20;;;3.30;99.90;;;;;;5030904;28;20205;-74
2021/12/09 05:37:43;;;;;;;16.85;8.02;;;3.40;99.90;;;;;;5028869;28;20333;-74
2021/12/09 05:40:30;;;;;;;12.07;8.38;;;3.50;99.90;;;;;;5030885;28;20225;-74
2021/12/09 05:43:17;;;;;;;12.23;7.90;;;3.50;99.90;;;;;;5029886;28;20698;-74
2021/12/09 05:46:03;;;;;;;16.38;8.30;;;3.50;99.90;;;;;;5032017;28;20198;-74
2021/12/09 05:48:50;;;;;;;10.88;7.35;;;3.60;99.90;;;;;;5035001;28;20251;-74
2021/12/09 05:51:36;;;;;;;13.27;6.63;;;3.60;99.90;;;;;;5028625;28;20213;-74
2021/12/09 05:54:22;;;;;;;11.02;6.85;;;3.60;99.90;;;;;;5031995;28;20233;-74
2021/12/09 05:57:09;;;;;;;15.52;7.15;;;3.60;99.90;;;;;;5031487;28;20299;-74
2021/12/09 05:59:55;;;;;;;11.27;6.63;;;3.60;99.90;;;;;;5029498;28;20776;-74
2021/12/09 06:02:41;;;;;;;13.20;7.50;;;3.60;99.90;;;;;;5033253;28;20545;-74
2021/12/09 06:05:26;;;;;;;15.27;7.50;;;3.60;99.90;;;;;;5031630;28;20729;-73
2021/12/09 06:08:12;;;;;;;22.17;8.10;;;3.50;99.90;;;;;;5028241;28;20193;-74
2021/12/09 06:10:58;;;;;;;15.50;7.72;;;3.50;99.90;;;;;;5035207;28;20197;-74
2021/12/09 06:13:47;;;;;;;14.88;8.40;;;3.50;99.90;;;;;;5028366;28;20733;-73
2021/12/09 06:16:33;;;;;;;12.77;6.93;;;3.50;99.90;;;;;;5033703;28;20234;-74
2021/12/09 06:19:18;;;;;;;15.68;7.30;;;3.50;99.90;;;;;;5027352;28;20232;-74
2021/12/09 06:22:05;;;;;;;11.35;6.28;;;3.50;99.90;;;;;;5026446;28;20213;-74
2021/12/09 06:24:50;;;;;;;11.88;7.32;;;3.50;99.90;;;;;;5028781;28;20198;-74
2021/12/09 06:27:36;;;;;;;12.60;8.40;;;3.50;99.90;;;;;;5029312;28;20568;-74
2021/12/09 06:30:23;;;;;;;12.88;6.85;;;3.50;99.90;;;;;;5031144;28;20245;-74
2021/12/09 06:33:09;;;;;;;13.15;7.63;;;3.60;99.90;;;;;;5034138;28;20201;-73
2021/12/09 06:35:55;;;;;;;12.20;8.13;;;3.70;99.90;;;;;;5029781;28;20204;-74
2021/12/09 06:38:40;;;;;;;10.40;6.82;;;3.70;99.90;;;;;;5038636;28;20320;-74
2021/12/09 06:41:26;;;;;;;11.25;7.60;;;3.60;99.90;;;;;;5028174;28;20675;-74
2021/12/09 06:44:12;;;;;;;11.73;7.35;;;3.60;99.90;;;;;;5026803;28;20206;-74
2021/12/09 06:46:59;;;;;;;14.18;6.97;;;3.60;99.90;;;;;;5030894;28;20201;-74
2021/12/09 06:49:45;;;;;;;10.38;7.05;;;3.50;99.90;;;;;;5038506;28;20229;-73
2021/12/09 06:52:30;;;;;;;14.35;8.52;;;3.50;99.90;;;;;;5026593;28;20573;-73
2021/12/09 06:55:18;;;;;;;11.10;7.32;;;3.50;99.90;;;;;;5030061;28;20670;-73
2021/12/09 06:58:04;;;;;;;12.00;7.00;;;3.50;99.90;;;;;;5031107;28;20291;-73
2021/12/09 07:00:51;;;;;;;14.63;7.40;;;3.50;99.90;;;;;;5028388;28;20209;-73
2021/12/09 07:03:39;;;;;;;12.23;8.43;;;3.60;99.90;;;;;;5032836;28;20594;-73
2021/12/09 07:06:26;;;;;;;15.95;7.93;;;3.60;99.90;;;;;;5030063;28;20205;-73
2021/12/09 07:09:13;;;;;;;17.63;9.10;;;3.60;99.90;;;;;;5031310;28;20245;-73
2021/12/09 07:11:59;;;;;;;19.00;9.35;;;3.60;99.90;;;;;;5026024;28;20328;-73
2021/12/09 07:14:45;;;;;;;19.23;8.93;;;3.60;99.90;;;;;;5035538;28;20280;-73
2021/12/09 07:17:30;;;;;;;28.20;10.75;;;3.50;99.90;;;;;;5031855;28;20233;-73
2021/12/09 07:20:22;;;;;;;11.85;8.00;;;3.50;99.90;;;;;;5032460;28;20229;-73
2021/12/09 07:23:08;;;;;;;13.15;8.23;;;3.50;99.90;;;;;;5036874;28;20205;-73
2021/12/09 07:25:54;;;;;;;12.63;8.38;;;3.40;99.90;;;;;;5033358;28;20220;-73
2021/12/09 07:28:39;;;;;;;11.30;8.15;;;3.50;99.90;;;;;;5036929;28;20348;-73
2021/12/09 07:31:25;;;;;;;16.00;9.65;;;3.50;99.90;;;;;;5032713;28;20202;-73
2021/12/09 07:34:11;;;;;;;16.60;9.70;;;3.50;99.90;;;;;;5033481;28;20266;-73
2021/12/09 07:37:02;;;;;;;15.10;8.60;;;3.60;99.90;;;;;;5035405;28;20225;-73
2021/12/09 07:39:48;;;;;;;13.73;8.15;;;3.70;99.90;;;;;;5040870;28;20427;-73
2021/12/09 07:42:34;;;;;;;11.88;7.50;;;3.70;99.90;;;;;;5032844;28;20280;-73
2021/12/09 07:45:20;;;;;;;12.93;8.23;;;3.70;99.90;;;;;;5036167;28;20210;-73
2021/12/09 07:48:06;;;;;;;16.13;8.95;;;3.70;99.90;;;;;;5041555;28;20693;-73
2021/12/09 07:50:51;;;;;;;16.50;8.23;;;3.70;99.90;;;;;;5036783;28;20724;-73
2021/12/09 07:53:38;;;;;;;16.75;10.00;;;3.70;99.90;;;;;;5041346;28;20201;-73
2021/12/09 07:56:24;;;;;;;25.17;12.32;;;3.70;99.90;;;;;;5031813;28;20197;-73
2021/12/09 07:59:11;;;;;;;15.18;9.73;;;3.80;99.90;;;;;;5033706;28;20229;-73
2021/12/09 08:01:57;;;;;;;12.02;8.77;;;3.90;99.90;;;;;;5030890;28;20568;-73
2021/12/09 08:04:42;;;;;;;18.13;10.50;;;3.90;99.90;;;;;;5033813;28;20575;-73
2021/12/09 08:07:28;;;;;;;27.77;16.85;;;4.00;99.90;;;;;;5033092;28;20461;-73
2021/12/09 08:10:17;;;;;;;40.83;24.80;;;3.90;99.90;;;;;;5028126;28;20283;-73
2021/12/09 08:13:03;;;;;;;27.55;19.15;;;4.00;99.90;;;;;;5029001;28;20206;-72
2021/12/09 08:15:50;;;;;;;24.70;15.85;;;4.00;99.90;;;;;;5034164;28;20204;-73
2021/12/09 08:18:53;;;;;;;22.13;15.48;;;4.00;99.90;;;;;;5031266;28;20336;-73
2021/12/09 08:21:40;;;;;;;20.35;13.10;;;3.90;99.90;;;;;;5031183;28;20240;-73
2021/12/09 08:24:25;;;;;;;24.42;11.55;;;4.00;99.90;;;;;;5036251;28;20210;-73
2021/12/09 08:27:12;;;;;;;18.48;12.55;;;4.10;99.90;;;;;;5035057;28;20202;-73
2021/12/09 08:30:01;;;;;;;18.67;13.90;;;4.00;99.90;;;;;;5027213;28;20396;-73
2021/12/09 08:32:46;;;;;;;11.98;9.55;;;4.10;99.90;;;;;;5031600;28;20210;-73
2021/12/09 08:35:32;;;;;;;14.55;10.55;;;4.10;99.90;;;;;;5036096;28;20206;-73
2021/12/09 08:38:19;;;;;;;25.23;11.43;;;4.10;99.90;;;;;;5034330;28;20224;-73
2021/12/09 08:41:06;;;;;;;17.02;10.50;;;4.10;99.90;;;;;;5030570;28;20691;-73
2021/12/09 08:43:53;;;;;;;24.58;12.88;;;4.20;99.90;;;;;;5030569;28;20209;-73
2021/12/09 08:46:38;;;;;;;21.35;13.38;;;4.10;99.90;;;;;;5030293;28;20209;-73
2021/12/09 08:49:24;;;;;;;25.75;15.23;;;4.20;99.90;;;;;;5035290;28;20356;-73
2021/12/09 08:52:09;;;;;;;36.42;23.42;;;4.20;99.90;;;;;;5030608;28;20251;-73
2021/12/09 08:54:55;;;;;;;23.50;17.35;;;4.30;99.90;;;;;;5033828;28;20201;-73
2021/12/09 08:57:40;;;;;;;43.00;24.77;;;4.20;99.90;;;;;;5032341;28;20225;-72
2021/12/09 09:00:30;;;;;;;40.58;21.65;;;4.30;99.90;;;;;;5035022;28;20229;-73
2021/12/09 09:03:16;;;;;;;38.67;20.75;;;4.40;99.90;;;;;;5031064;28;20214;-73
2021/12/09 09:06:02;;;;;;;26.10;16.20;;;4.50;99.90;;;;;;5036236;28;20693;-73
2021/12/09 09:08:50;;;;;;;28.92;17.08;;;4.60;99.90;;;;;;5034888;28;20280;-72
2021/12/09 09:11:36;;;;;;;28.75;17.85;;;4.60;99.90;;;;;;5040196;28;20579;-73
2021/12/09 09:14:22;;;;;;;26.92;15.82;;;4.70;99.90;;;;;;5026911;28;20205;-73
2021/12/09 09:17:09;;;;;;;21.05;14.57;;;4.70;99.90;;;;;;5033118;28;20709;-72
2021/12/09 09:19:55;;;;;;;21.83;14.02;;;4.70;99.90;;;;;;5030666;28;20283;-72
2021/12/09 09:22:41;;;;;;;25.85;14.68;;;4.70;99.90;;;;;;5030230;28;20212;-73
2021/12/09 09:25:29;;;;;;;21.20;13.70;;;4.80;99.90;;;;;;5030777;28;20340;-73
2021/12/09 09:28:16;;;;;;;27.00;14.00;;;4.90;99.90;;;;;;5032251;28;20214;-73
2021/12/09 09:31:03;;;;;;;26.13;13.70;;;4.80;99.90;;;;;;5030165;28;20201;-73
2021/12/09 09:33:50;;;;;;;20.73;12.73;;;4.90;99.90;;;;;;5034934;28;20208;-73
2021/12/09 09:36:39;;;;;;;28.38;16.95;;;5.00;99.90;;;;;;5030024;28;20744;-73
2021/12/09 09:39:29;;;;;;;20.48;12.52;;;5.00;99.90;;;;;;5028552;28;20229;-73
2021/12/09 09:42:34;;;;;;;24.95;15.10;;;5.00;99.90;;;;;;5029600;28;20198;-73
2021/12/09 09:45:19;;;;;;;30.80;13.80;;;4.90;99.90;;;;;;5027453;28;20205;-74
2021/12/09 09:48:11;;;;;;;26.90;14.30;;;4.90;99.90;;;;;;5032200;28;20280;-72
2021/12/09 09:50:59;;;;;;;24.90;14.68;;;4.80;99.90;;;;;;5033550;28;20277;-71
2021/12/09 09:53:45;;;;;;;21.30;15.40;;;4.90;99.90;;;;;;5029318;28;20210;-73
2021/12/09 09:56:32;;;;;;;21.60;13.98;;;4.90;99.90;;;;;;5036805;28;20225;-71
2021/12/09 09:59:18;;;;;;;20.00;14.45;;;5.00;99.90;;;;;;5027162;28;20225;-71
2021/12/09 10:02:05;;;;;;;24.77;13.90;;;4.90;99.90;;;;;;5029346;28;20205;-73
2021/12/09 10:05:00;;;;;;;31.65;15.65;;;4.90;99.90;;;;;;5030263;28;20242;-73
2021/12/09 10:07:47;;;;;;;24.55;14.05;;;4.90;99.90;;;;;;5031121;28;20201;-73
2021/12/09 10:10:33;;;;;;;27.42;15.10;;;5.00;99.90;;;;;;5030617;28;20812;-73
2021/12/09 10:13:21;;;;;;;22.48;14.35;;;4.90;99.90;;;;;;5027246;28;20200;-73
2021/12/09 10:16:17;;;;;;;29.05;15.43;;;4.80;99.90;;;;;;5027998;28;20312;-73
2021/12/09 10:19:13;;;;;;;29.70;15.27;;;4.90;99.90;;;;;;5027707;28;20684;-73
2021/12/09 10:22:06;;;;;;;26.27;14.45;;;4.90;99.90;;;;;;5030761;28;20679;-73
2021/12/09 10:24:55;;;;;;;27.08;16.13;;;4.90;99.90;;;;;;5018645;28;20556;-73
2021/12/09 10:27:45;;;;;;;26.95;14.88;;;4.90;99.90;;;;;;5039162;28;20291;-73
2021/12/09 10:30:36;;;;;;;23.88;14.40;;;4.90;99.90;;;;;;5035182;28;20225;-73
2021/12/09 10:33:24;;;;;;;31.88;14.90;;;4.90;99.90;;;;;;5031732;28;20205;-73
2021/12/09 10:36:09;;;;;;;21.98;14.75;;;5.00;99.90;;;;;;5032320;28;20205;-73
2021/12/09 10:39:21;;;;;;;21.45;14.05;;;5.00;99.90;;;;;;5031662;28;20229;-73
2021/12/09 10:42:14;;;;;;;22.55;13.27;;;5.00;99.90;;;;;;5012187;28;20302;-73
2021/12/09 10:45:01;;;;;;;27.90;16.17;;;5.00;99.90;;;;;;5020136;28;20221;-73
2021/12/09 10:47:51;;;;;;;33.47;14.65;;;5.00;99.90;;;;;;5031168;28;20209;-73
2021/12/09 10:50:41;;;;;;;27.55;16.00;;;4.80;99.90;;;;;;5027203;28;20722;-73
2021/12/09 10:53:34;;;;;;;26.55;15.10;;;4.90;99.90;;;;;;5030652;28;20701;-73
2021/12/09 10:56:28;;;;;;;22.83;14.45;;;4.80;99.90;;;;;;5035676;28;20200;-73
2021/12/09 10:59:30;;;;;;;19.75;14.23;;;4.90;99.90;;;;;;5031989;28;20714;-73
2021/12/09 11:02:16;;;;;;;25.60;15.18;;;4.90;99.90;;;;;;5028145;28;20295;-73
2021/12/09 11:05:05;;;;;;;24.30;14.90;;;5.00;99.90;;;;;;5024477;28;20202;-73
2021/12/09 11:07:50;;;;;;;26.48;15.75;;;5.00;99.90;;;;;;5027647;28;20202;-73
2021/12/09 11:10:45;;;;;;;26.85;16.30;;;5.00;99.90;;;;;;5028457;28;20714;-73
2021/12/09 11:13:41;;;;;;;27.38;14.73;;;5.10;99.90;;;;;;5032907;28;20200;-73
2021/12/09 11:16:30;;;;;;;24.33;14.43;;;5.20;99.90;;;;;;5025600;28;20201;-74
2021/12/09 11:19:23;;;;;;;24.45;15.55;;;5.20;99.90;;;;;;5024185;28;20237;-73
2021/12/09 11:22:12;;;;;;;26.10;15.70;;;5.20;99.90;;;;;;5025240;28;20221;-73
2021/12/09 11:25:02;;;;;;;22.88;15.25;;;5.10;99.90;;;;;;5021899;28;20265;-73
2021/12/09 11:28:09;;;;;;;24.25;15.20;;;5.10;99.90;;;;;;5031944;28;20217;-73
2021/12/09 11:31:10;;;;;;;28.38;15.95;;;5.10;99.90;;;;;;5029397;28;20206;-73
2021/12/09 11:34:09;;;;;;;26.27;15.57;;;5.10;99.90;;;;;;5025176;28;20351;-73
2021/12/09 11:37:00;;;;;;;24.98;15.48;;;5.10;99.90;;;;;;5029273;28;20302;-73
2021/12/09 11:39:47;;;;;;;27.52;15.43;;;5.10;99.90;;;;;;5030151;28;20280;-73
2021/12/09 11:42:39;;;;;;;22.60;14.98;;;5.10;99.90;;;;;;5024672;28;20209;-73
2021/12/09 11:45:27;;;;;;;28.08;14.15;;;5.20;99.90;;;;;;5029467;28;20337;-74
2021/12/09 11:48:13;;;;;;;23.70;14.63;;;5.20;99.90;;;;;;5019549;28;20209;-73
2021/12/09 11:51:00;;;;;;;20.73;13.65;;;5.30;99.90;;;;;;5025114;28;20283;-73
2021/12/09 11:53:46;;;;;;;22.25;14.00;;;5.40;99.90;;;;;;5027464;28;20675;-73
2021/12/09 11:56:39;;;;;;;23.17;13.85;;;5.40;99.90;;;;;;5030555;28;20293;-73
2021/12/09 12:12:45;;;;;;;23.63;13.32;;;5.30;99.90;;;;;;5030207;28;20214;-73
2021/12/09 12:15:44;;;;;;;20.60;12.73;;;5.30;99.90;;;;;;5021344;28;20264;-73
2021/12/09 12:18:41;;;;;;;23.88;14.07;;;5.30;99.90;;;;;;5029070;28;20259;-73
2021/12/09 12:21:48;;;;;;;20.50;13.18;;;5.30;99.90;;;;;;5031664;28;20201;-73
2021/12/09 12:25:02;;;;;;;28.25;12.82;;;5.30;99.90;;;;;;5030127;28;20331;-73
2021/12/09 12:28:09;;;;;;;20.50;11.82;;;5.30;99.90;;;;;;5030897;28;20220;-73
2021/12/09 12:34:34;;;;;;;18.05;11.40;;;5.30;99.90;;;;;;5025086;28;20588;-73
2021/12/09 12:37:44;;;;;;;18.65;10.52;;;5.30;99.90;;;;;;5031042;28;20213;-73
2021/12/09 12:40:39;;;;;;;19.73;10.82;;;5.20;99.90;;;;;;5029494;28;20221;-73
2021/12/09 12:43:26;;;;;;;19.02;11.02;;;5.30;99.90;;;;;;5030791;28;21160;-73
2021/12/09 12:46:20;;;;;;;15.10;10.00;;;5.30;99.90;;;;;;5029853;28;20206;-73
2021/12/09 12:49:16;;;;;;;18.77;9.30;;;5.30;99.90;;;;;;5032134;28;20228;-73
2021/12/09 12:52:08;;;;;;;13.52;10.45;;;5.30;99.90;;;;;;5030311;28;20210;-73
2021/12/09 12:55:11;;;;;;;14.32;9.60;;;5.40;99.90;;;;;;5029435;28;20198;-73
2021/12/09 12:58:08;;;;;;;16.65;9.88;;;5.40;99.90;;;;;;5030636;28;20694;-73
2021/12/09 13:00:54;;;;;;;19.38;10.43;;;5.40;99.90;;;;;;5039162;28;20197;-73
2021/12/09 13:03:45;;;;;;;15.40;9.13;;;5.40;99.90;;;;;;5033789;28;20221;-73
2021/12/09 13:06:45;;;;;;;13.88;10.23;;;5.40;99.90;;;;;;5029292;28;20205;-72
2021/12/09 13:09:36;;;;;;;16.85;9.20;;;5.40;99.90;;;;;;5029180;28;20238;-73
2021/12/09 13:12:43;;;;;;;19.00;9.73;;;5.50;99.90;;;;;;5033978;28;20578;-73
2021/12/09 13:15:38;;;;;;;19.30;10.07;;;5.60;99.90;;;;;;5030503;28;20209;-74
2021/12/09 13:19:01;;;;;;;15.52;10.23;;;5.60;99.90;;;;;;5028264;28;20241;-73
2021/12/09 13:21:53;;;;;;;19.38;11.20;;;5.70;99.90;;;;;;5036004;28;20485;-73
2021/12/09 13:24:50;;;;;;;16.38;9.27;;;5.70;99.90;;;;;;5033348;28;20763;-73
2021/12/09 13:27:52;;;;;;;17.05;10.07;;;5.60;99.90;;;;;;5028626;28;20249;-73
2021/12/09 13:30:58;;;;;;;12.60;8.50;;;5.60;99.90;;;;;;5029793;28;20356;-73
2021/12/09 13:33:57;;;;;;;19.23;9.93;;;5.60;99.90;;;;;;5031982;28;20205;-72
2021/12/09 13:37:04;;;;;;;11.55;7.60;;;5.70;99.90;;;;;;5028254;28;20205;-71
2021/12/09 13:46:09;;;;;;;16.00;8.18;;;5.80;99.90;;;;;;5002489;28;20202;-73
2021/12/09 13:49:03;;;;;;;16.30;7.90;;;5.70;99.90;;;;;;5033592;28;20221;-73
2021/12/09 13:51:58;;;;;;;16.45;7.75;;;5.50;99.90;;;;;;5029957;28;20565;-73
2021/12/09 13:54:52;;;;;;;11.98;7.35;;;5.50;99.90;;;;;;5033156;28;20212;-73
2021/12/09 13:57:40;;;;;;;12.70;7.40;;;5.50;99.90;;;;;;5029273;28;20714;-73
2021/12/09 14:00:34;;;;;;;8.65;6.63;;;5.50;99.90;;;;;;5028512;28;20580;-73
2021/12/09 14:03:23;;;;;;;8.52;6.40;;;5.50;99.90;;;;;;5029814;28;20209;-73
2021/12/09 14:06:12;;;;;;;22.50;6.60;;;5.60;99.90;;;;;;5023488;28;20193;-73
2021/12/09 14:08:58;;;;;;;9.85;5.65;;;5.50;99.90;;;;;;5032733;28;20225;-73
2021/12/09 14:11:48;;;;;;;11.25;5.75;;;5.60;99.90;;;;;;5027042;28;20685;-73
2021/12/09 14:14:43;;;;;;;11.50;6.28;;;5.50;99.90;;;;;;5027800;28;20202;-73
2021/12/09 14:17:29;;;;;;;9.65;4.95;;;5.50;99.90;;;;;;5026864;28;20221;-73
2021/12/09 14:20:20;;;;;;;9.70;6.03;;;5.40;99.90;;;;;;5028363;28;21940;-73
2021/12/09 14:23:07;;;;;;;15.82;6.30;;;5.50;99.90;;;;;;5028997;28;20221;-70
2021/12/09 14:25:53;;;;;;;12.73;6.13;;;5.50;99.90;;;;;;5027154;28;20527;-73
2021/12/09 14:28:39;;;;;;;14.55;6.53;;;5.60;99.90;;;;;;5029855;28;20802;-73
2021/12/09 14:31:25;;;;;;;10.88;5.70;;;5.60;99.90;;;;;;5028779;28;20575;-73
2021/12/09 14:34:11;;;;;;;12.38;6.00;;;5.60;99.90;;;;;;5024374;28;20325;-73
2021/12/09 14:37:03;;;;;;;9.93;5.00;;;5.60;99.90;;;;;;5029302;28;20200;-73
2021/12/09 14:39:49;;;;;;;16.05;5.65;;;5.60;99.90;;;;;;5029924;28;20284;-73
2021/12/09 14:42:36;;;;;;;15.85;6.20;;;5.60;99.90;;;;;;5022084;28;20683;-74
2021/12/09 14:45:27;;;;;;;16.52;5.22;;;5.50;99.90;;;;;;5022091;28;20209;-74
2021/12/09 14:48:13;;;;;;;14.98;5.50;;;5.40;99.90;;;;;;5026058;28;20590;-73
2021/12/09 14:51:11;;;;;;;11.32;4.95;;;5.40;99.90;;;;;;5027396;28;20204;-74
2021/12/09 14:54:07;;;;;;;9.15;4.75;;;5.40;99.90;;;;;;5028780;28;20210;-74